createdAt,value
2018-09-11T00:00:59.477Z,101909.05
2018-09-11T00:02:03.684Z,101917.12
2018-09-11T00:03:10.026Z,101912.72
2018-09-11T00:04:14.236Z,101912.05
2018-09-11T00:05:18.386Z,101911.19
2018-09-11T00:06:22.537Z,101917.06
2018-09-11T00:07:26.683Z,101911.00
2018-09-11T00:08:30.864Z,101914.18
2018-09-11T00:09:35.266Z,101905.26
2018-09-11T00:10:39.400Z,101911.13
2018-09-11T00:11:44.424Z,101910.31
2018-09-11T00:12:48.612Z,101909.09
2018-09-11T00:13:53.171Z,101910.94
2018-09-11T00:14:57.430Z,101908.25
2018-09-11T00:16:01.607Z,101900.34
2018-09-11T00:17:06.041Z,101904.87
2018-09-11T00:18:10.238Z,101904.52
2018-09-11T00:19:14.362Z,101906.84
2018-09-11T00:20:18.575Z,101902.48
2018-09-11T00:21:22.887Z,101904.81
2018-09-11T00:22:27.038Z,101907.14
2018-09-11T00:23:31.233Z,101902.78
2018-09-11T00:24:35.573Z,101904.63
2018-09-11T00:25:39.777Z,101906.45
2018-09-11T00:26:43.985Z,101900.72
2018-09-11T00:27:48.495Z,101897.70
2018-09-11T00:28:52.931Z,101909.45
2018-09-11T00:29:57.068Z,101906.76
2018-09-11T00:31:01.474Z,101905.55
2018-09-11T00:32:05.724Z,101906.07
2018-09-11T00:33:10.033Z,101899.61
2018-09-11T00:34:14.442Z,101909.03
2018-09-11T00:35:18.751Z,101901.62
2018-09-11T00:36:23.140Z,101912.86
2018-09-11T00:37:27.283Z,101902.60
2018-09-11T00:38:31.905Z,101903.12
2018-09-11T00:39:36.139Z,101907.62
2018-09-11T00:40:40.342Z,101902.87
2018-09-11T00:41:44.596Z,101906.57
2018-09-11T00:42:48.801Z,101902.87
2018-09-11T00:43:52.976Z,101906.90
2018-09-11T00:44:57.147Z,101906.90
2018-09-11T00:46:01.343Z,101904.21
2018-09-11T00:47:05.527Z,101905.23
2018-09-11T00:48:09.716Z,101893.12
2018-09-11T00:49:13.874Z,101891.78
2018-09-11T00:50:18.110Z,101886.90
2018-09-11T00:51:22.286Z,101890.08
2018-09-11T00:52:26.532Z,101894.11
2018-09-11T00:53:30.965Z,101893.63
2018-09-11T00:54:35.146Z,101895.09
2018-09-11T00:55:39.500Z,101892.41
2018-09-11T00:56:43.683Z,101893.75
2018-09-11T00:57:47.902Z,101889.72
2018-09-11T00:58:52.287Z,101882.15
2018-09-11T00:59:56.765Z,101882.67
2018-09-11T01:01:00.938Z,101882.15
2018-09-11T01:02:05.313Z,101881.66
2018-09-11T01:03:09.538Z,101882.67
2018-09-11T01:04:13.762Z,101882.67
2018-09-11T01:05:18.268Z,101880.61
2018-09-11T01:06:22.454Z,101881.45
2018-09-11T01:07:26.669Z,101881.10
2018-09-11T01:08:30.904Z,101884.28
2018-09-11T01:09:35.084Z,101888.31
2018-09-11T01:10:39.243Z,101883.95
2018-09-11T01:11:43.469Z,101879.92
2018-09-11T01:12:47.630Z,101874.67
2018-09-11T01:13:51.850Z,101881.56
2018-09-11T01:14:56.046Z,101883.77
2018-09-11T01:16:00.195Z,101881.20
2018-09-11T01:17:04.391Z,101883.89
2018-09-11T01:18:08.605Z,101883.53
2018-09-11T01:19:13.004Z,101885.89
2018-09-11T01:20:17.148Z,101888.58
2018-09-11T01:21:21.377Z,101881.50
2018-09-11T01:22:26.004Z,101886.88
2018-09-11T01:23:30.234Z,101881.99
2018-09-11T01:24:34.452Z,101882.48
2018-09-11T01:25:38.736Z,101884.32
2018-09-11T01:26:42.922Z,101884.32
2018-09-11T01:27:47.260Z,101883.34
2018-09-11T01:28:51.392Z,101880.29
2018-09-11T01:29:55.736Z,101871.89
2018-09-11T01:30:59.941Z,101879.96
2018-09-11T01:32:04.182Z,101870.55
2018-09-11T01:33:08.366Z,101871.53
2018-09-11T01:34:12.528Z,101872.39
2018-09-11T01:35:16.953Z,101871.89
2018-09-11T01:36:21.160Z,101870.55
2018-09-11T01:37:25.339Z,101860.42
2018-09-11T01:38:29.524Z,101868.00
2018-09-11T01:39:33.706Z,101865.31
2018-09-11T01:40:38.003Z,101863.11
2018-09-11T01:41:42.293Z,101862.78
2018-09-11T01:42:46.530Z,101860.09
2018-09-11T01:43:50.830Z,101862.92
2018-09-11T01:44:55.008Z,101863.08
2018-09-11T01:45:59.260Z,101863.08
2018-09-11T01:47:03.394Z,101863.58
2018-09-11T01:48:07.625Z,101862.23
2018-09-11T01:49:11.829Z,101859.19
2018-09-11T01:50:16.003Z,101865.05
2018-09-11T01:51:20.370Z,101867.73
2018-09-11T01:52:24.828Z,101860.33
2018-09-11T01:53:29.105Z,101863.52
2018-09-11T01:54:33.248Z,101866.69
2018-09-11T01:55:37.619Z,101865.84
2018-09-11T01:56:41.825Z,101859.77
2018-09-11T01:57:46.131Z,101862.10
2018-09-11T01:58:50.746Z,101861.74
2018-09-11T01:59:54.976Z,101858.73
2018-09-11T02:00:59.415Z,101854.70
2018-09-11T02:02:03.659Z,101853.84
2018-09-11T02:03:08.122Z,101852.50
2018-09-11T02:04:12.283Z,101850.30
2018-09-11T02:05:16.769Z,101844.08
2018-09-11T02:06:20.935Z,101843.75
2018-09-11T02:07:28.458Z,101838.87
2018-09-11T02:08:32.956Z,101838.51
2018-09-11T02:09:37.168Z,101838.15
2018-09-11T02:10:41.342Z,101834.61
2018-09-11T02:11:45.532Z,101839.98
2018-09-11T02:12:49.816Z,101844.02
2018-09-11T02:13:54.022Z,101844.02
2018-09-11T02:14:58.228Z,101852.23
2018-09-11T02:16:02.366Z,101855.91
2018-09-11T02:17:06.760Z,101854.56
2018-09-11T02:18:11.000Z,101853.72
2018-09-11T02:19:15.155Z,101854.73
2018-09-11T02:20:19.361Z,101858.59
2018-09-11T02:21:23.561Z,101851.55
2018-09-11T02:22:27.766Z,101850.20
2018-09-11T02:23:31.976Z,101849.36
2018-09-11T02:24:36.206Z,101845.45
2018-09-11T02:25:40.356Z,101846.80
2018-09-11T02:26:44.587Z,101853.52
2018-09-11T02:27:48.801Z,101854.86
2018-09-11T02:28:53.503Z,101851.84
2018-09-11T02:29:57.917Z,101853.19
2018-09-11T02:31:02.070Z,101846.47
2018-09-11T02:32:06.425Z,101855.52
2018-09-11T02:33:10.745Z,101858.20
2018-09-11T02:34:14.946Z,101858.69
2018-09-11T02:35:19.251Z,101861.02
2018-09-11T02:36:23.481Z,101864.20
2018-09-11T02:37:27.777Z,101861.67
2018-09-11T02:38:31.963Z,101864.48
2018-09-11T02:39:36.147Z,101871.73
2018-09-11T02:40:40.347Z,101867.83
2018-09-11T02:41:44.510Z,101873.33
2018-09-11T02:42:48.853Z,101876.87
2018-09-11T02:43:53.440Z,101888.11
2018-09-11T02:44:57.665Z,101885.09
2018-09-11T02:46:01.919Z,101888.27
2018-09-11T02:47:06.326Z,101889.25
2018-09-11T02:48:10.557Z,101891.94
2018-09-11T02:49:14.740Z,101887.58
2018-09-11T02:50:18.973Z,101889.91
2018-09-11T02:51:23.204Z,101892.09
2018-09-11T02:52:27.548Z,101892.59
2018-09-11T02:53:31.701Z,101892.59
2018-09-11T02:54:35.967Z,101895.89
2018-09-11T02:55:40.178Z,101888.84
2018-09-11T02:56:44.416Z,101892.39
2018-09-11T02:57:48.684Z,101892.02
2018-09-11T02:58:53.096Z,101892.16
2018-09-11T02:59:57.298Z,101891.83
2018-09-11T03:01:01.684Z,101887.30
2018-09-11T03:02:06.070Z,101900.21
2018-09-11T03:03:10.239Z,101897.69
2018-09-11T03:04:14.427Z,101894.34
2018-09-11T03:05:18.673Z,101901.06
2018-09-11T03:06:22.853Z,101898.37
2018-09-11T03:07:27.024Z,101898.37
2018-09-11T03:08:31.182Z,101891.17
2018-09-11T03:09:35.537Z,101887.50
2018-09-11T03:10:39.761Z,101889.17
2018-09-11T03:11:43.937Z,101890.87
2018-09-11T03:12:48.170Z,101892.95
2018-09-11T03:13:52.291Z,101893.64
2018-09-11T03:14:56.466Z,101891.64
2018-09-11T03:16:00.621Z,101887.84
2018-09-11T03:17:04.990Z,101892.08
2018-09-11T03:18:09.167Z,101889.23
2018-09-11T03:19:13.404Z,101888.45
2018-09-11T03:20:17.529Z,101893.52
2018-09-11T03:21:21.667Z,101892.05
2018-09-11T03:22:25.861Z,101897.33
2018-09-11T03:23:30.017Z,101888.29
2018-09-11T03:24:34.221Z,101889.83
2018-09-11T03:25:38.426Z,101889.89
2018-09-11T03:26:42.585Z,101895.95
2018-09-11T03:27:46.836Z,101887.59
2018-09-11T03:28:50.987Z,101891.50
2018-09-11T03:29:55.248Z,101883.63
2018-09-11T03:30:59.433Z,101884.84
2018-09-11T03:32:03.598Z,101886.52
2018-09-11T03:33:07.771Z,101884.68
2018-09-11T03:34:11.955Z,101885.23
2018-09-11T03:35:16.170Z,101886.71
2018-09-11T03:36:20.432Z,101888.42
2018-09-11T03:37:24.558Z,101890.25
2018-09-11T03:38:28.747Z,101891.95
2018-09-11T03:39:32.990Z,101894.16
2018-09-11T03:40:37.176Z,101889.76
2018-09-11T03:41:41.401Z,101894.52
2018-09-11T03:42:45.703Z,101889.95
2018-09-11T03:43:49.913Z,101893.17
2018-09-11T03:44:54.118Z,101890.31
2018-09-11T03:45:58.266Z,101896.91
2018-09-11T03:47:02.734Z,101888.84
2018-09-11T03:48:06.869Z,101899.06
2018-09-11T03:49:11.215Z,101895.39
2018-09-11T03:50:15.402Z,101901.13
2018-09-11T03:51:19.583Z,101894.41
2018-09-11T03:52:23.888Z,101890.73
2018-09-11T03:53:28.058Z,101898.50
2018-09-11T03:54:32.230Z,101891.26
2018-09-11T03:55:36.379Z,101891.98
2018-09-11T03:56:40.568Z,101891.35
2018-09-11T03:57:44.711Z,101894.89
2018-09-11T03:58:49.031Z,101890.50
2018-09-11T03:59:53.177Z,101898.92
2018-09-11T04:00:57.340Z,101901.13
2018-09-11T04:02:01.891Z,101897.45
2018-09-11T04:03:06.080Z,101899.61
2018-09-11T04:04:10.253Z,101902.66
2018-09-11T04:05:14.570Z,101897.64
2018-09-11T04:06:18.836Z,101899.34
2018-09-11T04:07:23.144Z,101905.05
2018-09-11T04:08:27.287Z,101899.18
2018-09-11T04:09:31.569Z,101905.41
2018-09-11T04:10:36.018Z,101909.80
2018-09-11T04:11:40.377Z,101911.64
2018-09-11T04:12:44.546Z,101910.13
2018-09-11T04:13:48.871Z,101901.21
2018-09-11T04:14:53.060Z,101907.94
2018-09-11T04:15:57.246Z,101904.92
2018-09-11T04:17:01.455Z,101906.09
2018-09-11T04:18:05.741Z,101904.75
2018-09-11T04:19:10.117Z,101910.85
2018-09-11T04:20:14.286Z,101907.67
2018-09-11T04:21:18.493Z,101910.19
2018-09-11T04:22:22.666Z,101911.54
2018-09-11T04:23:26.998Z,101906.52
2018-09-11T04:24:31.141Z,101905.86
2018-09-11T04:25:35.355Z,101900.48
2018-09-11T04:26:39.611Z,101911.10
2018-09-11T04:27:43.983Z,101912.77
2018-09-11T04:28:48.149Z,101911.95
2018-09-11T04:29:52.302Z,101909.76
2018-09-11T04:30:56.474Z,101907.92
2018-09-11T04:32:00.679Z,101910.09
2018-09-11T04:33:04.888Z,101907.07
2018-09-11T04:34:09.075Z,101907.56
2018-09-11T04:35:13.279Z,101901.69
2018-09-11T04:36:17.530Z,101894.97
2018-09-11T04:37:21.694Z,101894.80
2018-09-11T04:38:25.854Z,101894.47
2018-09-11T04:39:30.368Z,101892.11
2018-09-11T04:40:34.628Z,101891.78
2018-09-11T04:41:38.835Z,101889.91
2018-09-11T04:42:42.990Z,101895.29
2018-09-11T04:43:47.156Z,101899.85
2018-09-11T04:44:51.345Z,101895.29
2018-09-11T04:45:55.519Z,101898.51
2018-09-11T04:46:59.860Z,101897.66
2018-09-11T04:48:04.151Z,101901.69
2018-09-11T04:49:08.371Z,101903.03
2018-09-11T04:50:12.550Z,101903.17
2018-09-11T04:51:16.886Z,101900.12
2018-09-11T04:52:21.120Z,101898.77
2018-09-11T04:53:25.500Z,101897.11
2018-09-11T04:54:29.666Z,101894.05
2018-09-11T04:55:33.836Z,101887.83
2018-09-11T04:56:38.070Z,101892.35
2018-09-11T04:57:42.234Z,101896.06
2018-09-11T04:58:46.526Z,101893.02
2018-09-11T04:59:50.701Z,101887.27
2018-09-11T05:00:54.878Z,101888.62
2018-09-11T05:01:59.141Z,101885.93
2018-09-11T05:03:03.653Z,101887.77
2018-09-11T05:04:07.864Z,101889.96
2018-09-11T05:05:12.166Z,101888.62
2018-09-11T05:06:16.309Z,101888.98
2018-09-11T05:07:20.481Z,101890.32
2018-09-11T05:08:24.704Z,101878.72
2018-09-11T05:09:28.867Z,101882.91
2018-09-11T05:10:33.250Z,101884.58
2018-09-11T05:11:37.499Z,101883.73
2018-09-11T05:12:41.685Z,101886.09
2018-09-11T05:13:45.855Z,101877.17
2018-09-11T05:14:50.219Z,101878.03
2018-09-11T05:15:54.354Z,101876.33
2018-09-11T05:16:58.748Z,101879.50
2018-09-11T05:18:02.934Z,101881.34
2018-09-11T05:19:07.135Z,101876.98
2018-09-11T05:20:11.275Z,101881.02
2018-09-11T05:21:15.438Z,101873.44
2018-09-11T05:22:19.652Z,101878.46
2018-09-11T05:23:23.794Z,101876.27
2018-09-11T05:24:28.168Z,101879.45
2018-09-11T05:25:32.374Z,101877.77
2018-09-11T05:26:36.576Z,101881.45
2018-09-11T05:27:40.785Z,101880.59
2018-09-11T05:28:45.067Z,101880.27
2018-09-11T05:29:49.235Z,101881.72
2018-09-11T05:30:53.602Z,101885.06
2018-09-11T05:31:57.806Z,101883.36
2018-09-11T05:33:01.966Z,101882.67
2018-09-11T05:34:06.319Z,101877.92
2018-09-11T05:35:10.832Z,101885.62
2018-09-11T05:36:15.015Z,101885.43
2018-09-11T05:37:19.202Z,101895.00
2018-09-11T05:38:23.549Z,101887.92
2018-09-11T05:39:27.866Z,101886.71
2018-09-11T05:40:32.226Z,101892.25
2018-09-11T05:41:36.475Z,101897.27
2018-09-11T05:42:40.622Z,101891.56
2018-09-11T05:43:44.883Z,101891.56
2018-09-11T05:44:49.046Z,101889.37
2018-09-11T05:45:53.587Z,101888.52
2018-09-11T05:46:57.812Z,101886.81
2018-09-11T05:48:01.988Z,101884.29
2018-09-11T05:49:06.421Z,101884.29
2018-09-11T05:50:10.705Z,101886.12
2018-09-11T05:51:14.998Z,101886.75
2018-09-11T05:52:19.300Z,101889.59
2018-09-11T05:53:23.526Z,101889.23
2018-09-11T05:54:27.751Z,101881.83
2018-09-11T05:55:31.911Z,101889.41
2018-09-11T05:56:36.153Z,101891.23
2018-09-11T05:57:40.324Z,101885.02
2018-09-11T05:58:44.484Z,101884.84
2018-09-11T05:59:48.655Z,101894.78
2018-09-11T06:00:53.051Z,101888.06
2018-09-11T06:01:57.201Z,101890.22
2018-09-11T06:03:01.374Z,101887.89
2018-09-11T06:04:06.189Z,101890.09
2018-09-11T06:05:10.340Z,101890.09
2018-09-11T06:06:14.501Z,101891.44
2018-09-11T06:07:18.881Z,101892.78
2018-09-11T06:08:23.050Z,101898.16
2018-09-11T06:09:27.238Z,101900.84
2018-09-11T06:10:31.485Z,101895.47
2018-09-11T06:11:35.686Z,101896.81
2018-09-11T06:12:39.858Z,101895.95
2018-09-11T06:13:44.026Z,101900.48
2018-09-11T06:14:48.408Z,101897.80
2018-09-11T06:15:52.675Z,101901.33
2018-09-11T06:16:56.929Z,101898.16
2018-09-11T06:18:01.095Z,101899.50
2018-09-11T06:19:05.611Z,101902.55
2018-09-11T06:20:10.012Z,101901.53
2018-09-11T06:21:14.419Z,101900.70
2018-09-11T06:22:18.638Z,101900.19
2018-09-11T06:23:22.774Z,101899.69
2018-09-11T06:24:27.306Z,101895.17
2018-09-11T06:25:31.469Z,101895.04
2018-09-11T06:26:35.751Z,101894.87
2018-09-11T06:27:39.922Z,101894.75
2018-09-11T06:28:44.160Z,101895.92
2018-09-11T06:29:48.366Z,101896.28
2018-09-11T06:30:52.580Z,101897.33
2018-09-11T06:31:56.760Z,101899.03
2018-09-11T06:33:01.078Z,101903.40
2018-09-11T06:34:05.382Z,101905.46
2018-09-11T06:35:09.624Z,101905.66
2018-09-11T06:36:13.947Z,101903.46
2018-09-11T06:37:18.137Z,101906.87
2018-09-11T06:38:22.342Z,101903.16
2018-09-11T06:39:26.983Z,101907.55
2018-09-11T06:40:31.198Z,101904.37
2018-09-11T06:41:35.443Z,101904.57
2018-09-11T06:42:39.620Z,101901.03
2018-09-11T06:43:43.853Z,101905.29
2018-09-11T06:44:48.156Z,101902.96
2018-09-11T06:45:52.232Z,101893.91
2018-09-11T06:46:56.573Z,101901.48
2018-09-11T06:48:00.927Z,101898.63
2018-09-11T06:49:05.504Z,101898.00
2018-09-11T06:50:09.760Z,101896.66
2018-09-11T06:51:14.004Z,101906.27
2018-09-11T06:52:18.210Z,101904.75
2018-09-11T06:53:22.362Z,101909.15
2018-09-11T06:54:26.724Z,101908.16
2018-09-11T06:55:30.857Z,101910.69
2018-09-11T06:56:35.069Z,101910.19
2018-09-11T06:57:39.222Z,101905.66
2018-09-11T06:58:43.503Z,101908.19
2018-09-11T06:59:47.633Z,101906.84
2018-09-11T07:00:51.787Z,101907.56
2018-09-11T07:01:55.997Z,101909.95
2018-09-11T07:03:00.316Z,101906.28
2018-09-11T07:04:04.772Z,101909.66
2018-09-11T07:05:09.225Z,101906.47
2018-09-11T07:06:13.451Z,101906.30
2018-09-11T07:07:17.593Z,101904.95
2018-09-11T07:08:22.067Z,101911.69
2018-09-11T07:09:26.129Z,101909.34
2018-09-11T07:10:30.305Z,101908.36
2018-09-11T07:11:34.489Z,101913.74
2018-09-11T07:12:38.822Z,101906.00
2018-09-11T07:13:43.028Z,101909.05
2018-09-11T07:14:47.271Z,101916.62
2018-09-11T07:15:51.418Z,101916.13
2018-09-11T07:16:55.731Z,101922.69
2018-09-11T07:18:00.156Z,101918.52
2018-09-11T07:19:04.512Z,101921.89
2018-09-11T07:20:09.543Z,101924.45
2018-09-11T07:21:13.574Z,101922.45
2018-09-11T07:22:18.279Z,101928.87
2018-09-11T07:23:22.445Z,101920.86
2018-09-11T07:24:26.719Z,101925.27
2018-09-11T07:25:30.895Z,101926.17
2018-09-11T07:26:35.055Z,101936.64
2018-09-11T07:27:39.247Z,101928.13
2018-09-11T07:28:43.611Z,101933.70
2018-09-11T07:29:48.139Z,101936.58
2018-09-11T07:30:52.619Z,101931.73
2018-09-11T07:31:56.867Z,101933.13
2018-09-11T07:33:01.078Z,101931.48
2018-09-11T07:34:05.311Z,101929.83
2018-09-11T07:35:09.692Z,101931.86
2018-09-11T07:36:14.108Z,101937.33
2018-09-11T07:37:18.230Z,101933.47
2018-09-11T07:38:22.401Z,101934.02
2018-09-11T07:39:26.582Z,101938.59
2018-09-11T07:40:30.864Z,101944.20
2018-09-11T07:41:35.033Z,101936.45
2018-09-11T07:42:39.334Z,101942.02
2018-09-11T07:43:43.695Z,101940.17
2018-09-11T07:44:47.948Z,101928.91
2018-09-11T07:45:52.129Z,101928.41
2018-09-11T07:46:56.310Z,101927.91
2018-09-11T07:48:00.461Z,101931.10
2018-09-11T07:49:04.817Z,101929.27
2018-09-11T07:50:09.177Z,101919.97
2018-09-11T07:51:13.588Z,101925.36
2018-09-11T07:52:17.775Z,101923.33
2018-09-11T07:53:21.932Z,101919.79
2018-09-11T07:54:26.112Z,101912.56
2018-09-11T07:55:30.409Z,101913.91
2018-09-11T07:56:34.558Z,101919.30
2018-09-11T07:57:38.776Z,101916.11
2018-09-11T07:58:42.911Z,101914.76
2018-09-11T07:59:47.057Z,101917.77
2018-09-11T08:00:51.242Z,101912.92
2018-09-11T08:01:55.411Z,101921.31
2018-09-11T08:02:59.620Z,101918.63
2018-09-11T08:04:03.946Z,101919.13
2018-09-11T08:05:08.400Z,101925.72
2018-09-11T08:06:12.616Z,101929.75
2018-09-11T08:07:16.824Z,101930.11
2018-09-11T08:08:21.079Z,101921.01
2018-09-11T08:09:25.320Z,101924.23
2018-09-11T08:10:29.457Z,101926.75
2018-09-11T08:11:33.662Z,101927.95
2018-09-11T08:12:37.830Z,101926.61
2018-09-11T08:13:42.138Z,101925.09
2018-09-11T08:14:46.314Z,101929.31
2018-09-11T08:15:50.532Z,101925.63
2018-09-11T08:16:54.777Z,101925.14
2018-09-11T08:17:58.943Z,101927.66
2018-09-11T08:19:03.439Z,101929.22
2018-09-11T08:20:07.709Z,101921.81
2018-09-11T08:21:12.193Z,101927.56
2018-09-11T08:22:16.454Z,101931.78
2018-09-11T08:23:20.574Z,101934.17
2018-09-11T08:24:24.869Z,101928.96
2018-09-11T08:25:29.177Z,101923.92
2018-09-11T08:26:33.299Z,101921.91
2018-09-11T08:27:37.528Z,101927.16
2018-09-11T08:28:41.879Z,101935.92
2018-09-11T08:29:46.204Z,101932.06
2018-09-11T08:30:50.342Z,101930.43
2018-09-11T08:31:54.754Z,101923.02
2018-09-11T08:32:58.982Z,101928.59
2018-09-11T08:34:03.545Z,101922.56
2018-09-11T08:35:07.737Z,101925.94
2018-09-11T08:36:11.866Z,101918.52
2018-09-11T08:37:16.010Z,101920.08
2018-09-11T08:38:20.264Z,101919.41
2018-09-11T08:39:24.463Z,101914.38
2018-09-11T08:40:28.666Z,101911.86
2018-09-11T08:41:32.816Z,101916.44
2018-09-11T08:42:36.953Z,101911.71
2018-09-11T08:43:41.249Z,101906.53
2018-09-11T08:44:45.398Z,101913.30
2018-09-11T08:45:49.550Z,101913.16
2018-09-11T08:46:53.717Z,101912.84
2018-09-11T08:47:57.958Z,101916.91
2018-09-11T08:49:02.595Z,101918.44
2018-09-11T08:50:07.212Z,101914.57
2018-09-11T08:51:12.032Z,101913.75
2018-09-11T08:52:16.218Z,101917.97
2018-09-11T08:53:20.561Z,101918.14
2018-09-11T08:54:24.973Z,101921.37
2018-09-11T08:55:29.202Z,101926.97
2018-09-11T08:56:33.353Z,101920.41
2018-09-11T08:57:37.519Z,101922.78
2018-09-11T08:58:41.788Z,101928.20
2018-09-11T08:59:46.001Z,101927.52
2018-09-11T09:00:50.137Z,101923.83
2018-09-11T09:01:54.353Z,101930.25
2018-09-11T09:02:58.527Z,101914.06
2018-09-11T09:04:02.720Z,101926.02
2018-09-11T09:05:06.929Z,101927.72
2018-09-11T09:06:11.311Z,101924.84
2018-09-11T09:07:15.491Z,101918.30
2018-09-11T09:08:19.621Z,101925.91
2018-09-11T09:09:23.794Z,101922.88
2018-09-11T09:10:28.006Z,101923.05
2018-09-11T09:11:32.142Z,101922.37
2018-09-11T09:12:36.457Z,101922.22
2018-09-11T09:13:40.607Z,101921.54
2018-09-11T09:14:44.868Z,101917.16
2018-09-11T09:15:49.092Z,101921.23
2018-09-11T09:16:53.246Z,101913.80
2018-09-11T09:17:57.428Z,101915.00
2018-09-11T09:19:01.569Z,101914.50
2018-09-11T09:20:05.798Z,101916.56
2018-09-11T09:21:10.152Z,101915.56
2018-09-11T09:22:14.351Z,101914.21
2018-09-11T09:23:18.757Z,101910.83
2018-09-11T09:24:22.922Z,101907.48
2018-09-11T09:25:27.074Z,101905.09
2018-09-11T09:26:31.271Z,101909.84
2018-09-11T09:27:35.428Z,101899.72
2018-09-11T09:28:39.639Z,101900.38
2018-09-11T09:29:43.943Z,101899.73
2018-09-11T09:30:48.116Z,101899.40
2018-09-11T09:31:52.429Z,101902.12
2018-09-11T09:32:56.930Z,101903.63
2018-09-11T09:34:01.114Z,101907.34
2018-09-11T09:35:05.437Z,101896.71
2018-09-11T09:36:09.643Z,101908.53
2018-09-11T09:37:13.905Z,101902.48
2018-09-11T09:38:18.075Z,101891.84
2018-09-11T09:39:22.234Z,101899.11
2018-09-11T09:40:26.690Z,101897.06
2018-09-11T09:41:31.069Z,101898.58
2018-09-11T09:42:35.470Z,101900.12
2018-09-11T09:43:39.651Z,101894.04
2018-09-11T09:44:43.842Z,101890.84
2018-09-11T09:45:48.022Z,101892.34
2018-09-11T09:46:52.212Z,101894.05
2018-09-11T09:47:56.427Z,101905.52
2018-09-11T09:49:00.599Z,101894.56
2018-09-11T09:50:05.110Z,101893.38
2018-09-11T09:51:09.407Z,101899.94
2018-09-11T09:52:13.611Z,101901.14
2018-09-11T09:53:18.075Z,101902.84
2018-09-11T09:54:22.406Z,101901.15
2018-09-11T09:55:26.607Z,101907.56
2018-09-11T09:56:30.742Z,101915.48
2018-09-11T09:57:34.926Z,101904.33
2018-09-11T09:58:39.144Z,101905.06
2018-09-11T09:59:44.340Z,101909.47
2018-09-11T10:00:53.805Z,101903.02
2018-09-11T10:02:03.208Z,101901.52
2018-09-11T10:03:07.353Z,101902.52
2018-09-11T10:04:11.871Z,101911.83
2018-09-11T10:05:16.049Z,101912.99
2018-09-11T10:06:20.479Z,101917.05
2018-09-11T10:07:24.946Z,101919.09
2018-09-11T10:08:29.069Z,101915.36
2018-09-11T10:09:33.358Z,101916.55
2018-09-11T10:10:37.515Z,101916.71
2018-09-11T10:11:41.896Z,101928.19
2018-09-11T10:12:46.055Z,101918.57
2018-09-11T10:13:50.227Z,101915.18
2018-09-11T10:14:54.426Z,101911.97
2018-09-11T10:15:58.626Z,101920.43
2018-09-11T10:17:02.815Z,101919.73
2018-09-11T10:18:06.622Z,101916.38
2018-09-11T10:19:10.788Z,101912.63
2018-09-11T10:20:15.017Z,101904.52
2018-09-11T10:21:19.203Z,101904.52
2018-09-11T10:22:23.375Z,101904.87
2018-09-11T10:23:27.561Z,101903.52
2018-09-11T10:24:31.921Z,101909.59
2018-09-11T10:25:36.209Z,101903.52
2018-09-11T10:26:40.373Z,101901.13
2018-09-11T10:27:44.625Z,101903.52
2018-09-11T10:28:48.743Z,101902.48
2018-09-11T10:29:52.898Z,101899.12
2018-09-11T10:30:57.107Z,101897.23
2018-09-11T10:32:01.236Z,101897.08
2018-09-11T10:33:05.395Z,101892.86
2018-09-11T10:34:09.589Z,101896.38
2018-09-11T10:35:13.771Z,101892.33
2018-09-11T10:36:17.941Z,101889.46
2018-09-11T10:37:22.118Z,101885.91
2018-09-11T10:38:26.331Z,101892.83
2018-09-11T10:39:30.546Z,101893.67
2018-09-11T10:40:34.784Z,101889.27
2018-09-11T10:41:38.998Z,101886.91
2018-09-11T10:42:43.211Z,101888.07
2018-09-11T10:43:47.709Z,101885.71
2018-09-11T10:44:51.923Z,101881.50
2018-09-11T10:45:56.120Z,101880.80
2018-09-11T10:47:00.331Z,101880.11
2018-09-11T10:48:04.511Z,101876.39
2018-09-11T10:49:08.755Z,101881.14
2018-09-11T10:50:12.914Z,101876.05
2018-09-11T10:51:17.100Z,101884.00
2018-09-11T10:52:21.283Z,101869.12
2018-09-11T10:53:25.479Z,101872.98
2018-09-11T10:54:29.664Z,101870.97
2018-09-11T10:55:33.903Z,101872.63
2018-09-11T10:56:38.174Z,101870.11
2018-09-11T10:57:42.621Z,101872.62
2018-09-11T10:58:46.783Z,101869.22
2018-09-11T10:59:51.153Z,101864.03
2018-09-11T11:00:55.337Z,101865.53
2018-09-11T11:01:59.482Z,101868.39
2018-09-11T11:03:03.934Z,101865.33
2018-09-11T11:04:08.141Z,101863.81
2018-09-11T11:05:12.381Z,101857.70
2018-09-11T11:06:16.505Z,101863.46
2018-09-11T11:07:21.100Z,101870.58
2018-09-11T11:08:25.281Z,101863.80
2018-09-11T11:09:29.664Z,101876.45
2018-09-11T11:10:33.888Z,101873.23
2018-09-11T11:11:38.180Z,101870.17
2018-09-11T11:12:42.443Z,101865.10
2018-09-11T11:13:46.645Z,101872.52
2018-09-11T11:14:51.927Z,101867.45
2018-09-11T11:15:56.064Z,101863.73
2018-09-11T11:17:00.315Z,101864.73
2018-09-11T11:18:04.624Z,101869.29
2018-09-11T11:19:08.999Z,101873.69
2018-09-11T11:20:13.355Z,101869.78
2018-09-11T11:21:17.652Z,101868.23
2018-09-11T11:22:22.231Z,101860.95
2018-09-11T11:23:26.411Z,101859.75
2018-09-11T11:24:30.673Z,101861.95
2018-09-11T11:25:34.793Z,101866.02
2018-09-11T11:26:38.955Z,101867.00
2018-09-11T11:27:43.099Z,101855.16
2018-09-11T11:28:47.258Z,101861.57
2018-09-11T11:29:51.509Z,101861.41
2018-09-11T11:30:55.649Z,101865.28
2018-09-11T11:31:59.805Z,101865.11
2018-09-11T11:33:03.963Z,101862.20
2018-09-11T11:34:08.329Z,101860.19
2018-09-11T11:35:12.740Z,101862.19
2018-09-11T11:36:17.053Z,101858.78
2018-09-11T11:37:21.142Z,101850.48
2018-09-11T11:38:25.282Z,101858.41
2018-09-11T11:39:29.456Z,101856.05
2018-09-11T11:40:33.656Z,101855.20
2018-09-11T11:41:38.128Z,101857.41
2018-09-11T11:42:42.327Z,101854.19
2018-09-11T11:43:46.516Z,101853.68
2018-09-11T11:44:50.661Z,101854.33
2018-09-11T11:45:54.866Z,101852.30
2018-09-11T11:46:59.002Z,101855.86
2018-09-11T11:48:03.176Z,101860.11
2018-09-11T11:49:07.348Z,101854.99
2018-09-11T11:50:11.611Z,101844.64
2018-09-11T11:51:15.796Z,101851.25
2018-09-11T11:52:20.429Z,101855.62
2018-09-11T11:53:24.583Z,101855.80
2018-09-11T11:54:28.742Z,101855.59
2018-09-11T11:55:32.980Z,101858.65
2018-09-11T11:56:37.094Z,101856.28
2018-09-11T11:57:41.238Z,101856.59
2018-09-11T11:58:45.429Z,101851.84
2018-09-11T11:59:49.549Z,101857.92
2018-09-11T12:00:53.718Z,101860.13
2018-09-11T12:01:57.964Z,101859.41
2018-09-11T12:03:02.119Z,101855.18
2018-09-11T12:04:06.528Z,101855.52
2018-09-11T12:05:10.714Z,101859.59
2018-09-11T12:06:14.879Z,101854.31
2018-09-11T12:07:19.028Z,101851.59
2018-09-11T12:08:23.787Z,101843.97
2018-09-11T12:09:28.054Z,101837.20
2018-09-11T12:10:32.478Z,101837.20
2018-09-11T12:11:36.645Z,101827.71
2018-09-11T12:12:40.840Z,101832.12
2018-09-11T12:13:45.046Z,101843.09